Terminal Aerodrome Forecast
Issued by NWS Duluth, MN

Home | Current Version | Previous Version | Text Only | Print | Product List | Glossary On
Versions: 1 2 3 4 5 6 7 8 9 10 11 12 13 14
000
FTUS43 KDLH 051100
TAFDLH
TAF
KDLH 051140Z 0512/0612 10005KT P6SM SKC
     FM051800 09010KT P6SM FEW120
     FM060000 07008KT P6SM SCT100
     FM060800 10006KT P6SM SCT030 BKN060=

USA.gov is the U.S. government's official web portal to all federal, state and local government web resources and services.